Time;durP1;ratioP1;P1;durP2;ratioP2;P2;SDS_P1;SDS_P2;PMS_P1;PMS_P2;Temp;Humidity;BMP_temperature;BMP_pressure;BME280_temperature;BME280_humidity;BME280_pressure;Samples;Min_cycle;Max_cycle;Signal;HPM_P1;HPM_P2
2023/09/13 00:01:48;;;;;;;12.82;6.28;;;;;;;16.52;100.00;101263.72;5054045;28;20036;-67
2023/09/13 00:04:13;;;;;;;14.90;6.38;;;;;;;16.38;100.00;101249.28;5054421;28;20036;-65
2023/09/13 00:06:39;;;;;;;10.23;5.88;;;;;;;16.39;100.00;101251.78;5053414;28;20109;-66
2023/09/13 00:09:06;;;;;;;9.93;6.20;;;;;;;16.35;100.00;101255.88;5054817;28;20372;-66
2023/09/13 00:11:32;;;;;;;11.57;5.97;;;;;;;16.22;100.00;101242.28;5054122;28;20036;-66
2023/09/13 00:13:58;;;;;;;10.38;6.00;;;;;;;16.33;100.00;101260.59;5054235;28;20063;-65
2023/09/13 00:16:24;;;;;;;7.85;5.72;;;;;;;16.29;100.00;101267.38;5053151;28;20060;-66
2023/09/13 00:18:51;;;;;;;7.85;5.85;;;;;;;16.23;100.00;101265.44;5054215;28;20052;-66
2023/09/13 00:21:17;;;;;;;10.02;7.00;;;;;;;16.10;100.00;101243.75;5053779;28;20119;-68
2023/09/13 00:23:43;;;;;;;6.70;5.15;;;;;;;16.17;100.00;101254.59;5054186;28;20091;-65
2023/09/13 00:26:09;;;;;;;8.23;6.88;;;;;;;16.10;100.00;101251.81;5053842;28;20531;-65
2023/09/13 00:28:35;;;;;;;9.27;6.13;;;;;;;16.15;100.00;101256.63;5054048;28;20121;-63
2023/09/13 00:31:01;;;;;;;10.85;5.72;;;;;;;16.11;100.00;101248.13;5053591;28;20041;-68
2023/09/13 00:33:29;;;;;;;6.68;5.35;;;;;;;15.97;100.00;101232.84;5053719;28;20037;-66
2023/09/13 00:35:56;;;;;;;12.48;5.78;;;;;;;16.02;100.00;101235.81;5053790;28;20064;-65
2023/09/13 00:38:21;;;;;;;12.88;5.93;;;;;;;15.96;100.00;101226.66;5053937;28;20036;-66
2023/09/13 00:40:47;;;;;;;9.43;5.72;;;;;;;15.80;100.00;101206.19;5053718;28;20059;-65
2023/09/13 00:43:12;;;;;;;12.60;6.87;;;;;;;15.78;100.00;101208.22;5053312;28;20025;-67
2023/09/13 00:45:38;;;;;;;18.45;7.68;;;;;;;16.04;100.00;101252.56;5053250;28;20068;-67
2023/09/13 00:48:04;;;;;;;29.98;6.63;;;;;;;15.95;100.00;101240.28;5053220;28;20036;-67
2023/09/13 00:50:30;;;;;;;9.85;6.35;;;;;;;16.00;100.00;101256.66;5053458;28;20033;-65
2023/09/13 00:52:57;;;;;;;6.30;5.38;;;;;;;15.90;100.00;101239.97;5053635;28;20506;-64
2023/09/13 00:55:26;;;;;;;8.30;5.60;;;;;;;15.92;100.00;101246.00;5053412;28;20423;-66
2023/09/13 00:57:53;;;;;;;7.15;5.72;;;;;;;15.64;100.00;101203.69;5053381;28;20507;-67
2023/09/13 01:00:20;;;;;;;12.03;5.13;;;;;;;15.94;100.00;101257.41;5053228;28;20056;-67
2023/09/13 01:02:45;;;;;;;9.20;5.70;;;;;;;15.62;100.00;101197.69;5053290;28;20024;-64
2023/09/13 01:05:13;;;;;;;7.47;5.63;;;;;;;15.91;100.00;101249.72;5053089;28;20044;-67
2023/09/13 01:07:40;;;;;;;8.45;4.95;;;;;;;15.83;100.00;101241.72;5052912;28;20031;-66
2023/09/13 01:10:07;;;;;;;9.05;5.70;;;;;;;15.85;100.00;101245.06;5052921;28;20063;-66
2023/09/13 01:12:33;;;;;;;9.07;5.57;;;;;;;15.79;100.00;101241.28;5052637;28;20109;-65
2023/09/13 01:15:00;;;;;;;8.50;5.65;;;;;;;15.86;100.00;101258.31;5052957;28;20372;-64
2023/09/13 01:17:50;;;;;;;7.55;5.47;;;;;;;15.81;100.00;101249.97;5034926;28;20065;-66
2023/09/13 01:20:22;;;;;;;13.32;6.38;;;;;;;15.69;100.00;101238.88;5051606;28;20032;-67
2023/09/13 01:22:55;;;;;;;6.77;5.70;;;;;;;15.75;100.00;101256.94;5052652;28;20028;-65
2023/09/13 01:25:45;;;;;;;8.23;5.80;;;;;;;15.72;100.00;101251.09;5053259;28;20033;-68
2023/09/13 01:28:39;;;;;;;19.83;6.20;;;;;;;15.68;100.00;101255.16;5052979;28;20033;-65
2023/09/13 01:31:08;;;;;;;8.00;5.53;;;;;;;15.60;100.00;101256.06;5052637;28;20087;-65
2023/09/13 01:33:34;;;;;;;9.73;5.03;;;;;;;15.56;100.00;101257.41;5052404;28;20389;-65
2023/09/13 01:36:00;;;;;;;8.50;5.87;;;;;;;15.54;100.00;101256.78;5052818;28;20021;-66
2023/09/13 01:38:26;;;;;;;7.37;5.30;;;;;;;15.54;100.00;101266.69;5052578;28;20029;-63
2023/09/13 01:41:08;;;;;;;10.40;5.47;;;;;;;15.54;100.00;101254.09;5052311;28;20098;-64
2023/09/13 01:43:35;;;;;;;8.57;6.27;;;;;;;15.21;100.00;101207.09;5052281;28;20033;-67
2023/09/13 01:46:01;;;;;;;11.57;7.47;;;;;;;15.40;100.00;101236.13;5052448;28;20032;-65
2023/09/13 01:48:28;;;;;;;7.63;5.57;;;;;;;15.49;100.00;101251.13;5052454;28;20021;-66
2023/09/13 01:50:54;;;;;;;7.93;6.30;;;;;;;15.47;100.00;101247.78;5051061;28;20064;-64
2023/09/13 01:53:20;;;;;;;8.10;6.27;;;;;;;15.47;100.00;101248.63;5052403;28;20024;-67
2023/09/13 01:55:45;;;;;;;15.47;5.53;;;;;;;15.40;100.00;101238.81;5052242;28;20082;-65
2023/09/13 01:58:11;;;;;;;15.67;6.93;;;;;;;15.31;100.00;101227.28;5052132;28;20025;-65
2023/09/13 02:00:36;;;;;;;8.80;6.30;;;;;;;15.38;100.00;101254.25;5052181;28;20095;-67
2023/09/13 02:03:02;;;;;;;12.27;7.10;;;;;;;15.36;100.00;101251.75;5052458;28;20076;-66
2023/09/13 02:05:27;;;;;;;8.87;5.40;;;;;;;15.04;100.00;101204.59;5052067;28;20033;-67
2023/09/13 02:07:53;;;;;;;10.37;5.37;;;;;;;15.26;100.00;101247.63;5052173;28;20522;-68
2023/09/13 02:10:18;;;;;;;8.07;5.90;;;;;;;15.30;100.00;101254.31;5052057;28;20032;-67
2023/09/13 02:12:44;;;;;;;9.50;6.00;;;;;;;15.22;100.00;101233.75;5052038;28;20078;-66
2023/09/13 02:15:09;;;;;;;9.30;5.93;;;;;;;15.23;100.00;101234.59;5051859;28;20056;-67
2023/09/13 02:17:35;;;;;;;10.13;6.80;;;;;;;15.25;100.00;101243.28;5052112;28;20056;-66
2023/09/13 02:20:00;;;;;;;8.83;5.90;;;;;;;15.28;100.00;101242.94;5051123;28;20036;-67
2023/09/13 02:22:26;;;;;;;8.40;6.33;;;;;;;15.19;100.00;101234.97;5052124;28;20029;-66
2023/09/13 02:24:51;;;;;;;10.47;8.03;;;;;;;15.15;100.00;101233.66;5051641;28;20035;-68
2023/09/13 02:27:17;;;;;;;9.80;6.07;;;;;;;15.18;100.00;101238.66;5051903;28;20060;-66
2023/09/13 02:29:42;;;;;;;11.63;6.77;;;;;;;15.19;100.00;101242.19;5051973;28;20037;-65
2023/09/13 02:32:09;;;;;;;8.07;6.20;;;;;;;15.18;100.00;101237.81;5051929;28;20091;-66
2023/09/13 02:34:34;;;;;;;8.27;6.13;;;;;;;15.08;100.00;101238.09;5051881;28;20033;-64
2023/09/13 02:37:00;;;;;;;8.73;5.60;;;;;;;15.13;100.00;101246.41;5051754;28;20083;-66
2023/09/13 02:39:41;;;;;;;9.17;5.83;;;;;;;15.06;100.00;101229.38;5051758;28;20571;-66
2023/09/13 02:42:07;;;;;;;9.00;6.03;;;;;;;15.11;100.00;101251.13;5051837;28;20522;-66
2023/09/13 02:44:33;;;;;;;11.70;5.43;;;;;;;15.01;100.00;101223.69;5051924;28;20024;-70
2023/09/13 02:47:00;;;;;;;10.40;6.17;;;;;;;14.99;100.00;101225.72;5050594;28;20027;-63
2023/09/13 02:49:26;;;;;;;13.43;6.23;;;;;;;15.08;100.00;101240.75;5051771;28;20108;-66
2023/09/13 02:51:52;;;;;;;13.20;5.80;;;;;;;15.06;100.00;101245.47;5050762;28;20111;-67
2023/09/13 02:54:18;;;;;;;7.63;5.53;;;;;;;15.01;100.00;101233.59;5051721;28;20033;-66
2023/09/13 02:56:45;;;;;;;9.67;6.57;;;;;;;14.99;100.00;101241.81;5051858;28;20503;-66
2023/09/13 02:59:11;;;;;;;10.57;5.97;;;;;;;14.95;100.00;101232.47;5051886;28;20017;-66
2023/09/13 03:01:36;;;;;;;9.33;6.10;;;;;;;14.91;100.00;101225.81;5051715;28;20032;-66
2023/09/13 03:04:02;;;;;;;13.37;6.47;;;;;;;14.21;100.00;101116.91;5051450;28;20082;-66
2023/09/13 03:06:29;;;;;;;13.13;6.77;;;;;;;14.81;100.00;101204.59;5051332;28;20503;-67
2023/09/13 03:08:55;;;;;;;8.77;6.20;;;;;;;14.85;100.00;101215.81;5051699;28;20033;-66
2023/09/13 03:11:21;;;;;;;9.60;6.53;;;;;;;14.80;100.00;101210.97;5050205;28;20509;-65
2023/09/13 03:13:46;;;;;;;13.80;8.27;;;;;;;14.81;100.00;101219.84;5051205;28;20124;-67
2023/09/13 03:16:13;;;;;;;13.47;8.40;;;;;;;14.89;100.00;101233.19;5051490;28;20356;-66
2023/09/13 03:18:38;;;;;;;12.07;6.60;;;;;;;14.80;100.00;101218.19;5053467;28;20349;-65
2023/09/13 03:21:08;;;;;;;9.40;5.90;;;;;;;14.85;100.00;101227.38;5055244;28;20025;-67
2023/09/13 03:23:37;;;;;;;10.97;6.03;;;;;;;14.78;100.00;101221.06;5054989;28;20098;-65
2023/09/13 03:26:12;;;;;;;11.50;6.37;;;;;;;14.71;100.00;101217.41;5054567;28;20025;-67
2023/09/13 03:28:38;;;;;;;9.10;5.77;;;;;;;14.84;100.00;101231.06;5055029;28;20036;-64
2023/09/13 03:31:12;;;;;;;9.53;5.70;;;;;;;14.83;100.00;101228.56;5054806;28;20508;-66
2023/09/13 03:33:39;;;;;;;12.53;6.87;;;;;;;14.85;100.00;101231.88;5055151;28;20098;-67
2023/09/13 03:36:09;;;;;;;6.80;6.03;;;;;;;14.78;100.00;101220.22;5054841;28;20036;-67
2023/09/13 03:38:39;;;;;;;13.20;7.43;;;;;;;14.84;100.00;101224.84;5053518;28;20492;-66
2023/09/13 03:41:10;;;;;;;10.70;6.70;;;;;;;14.81;100.00;101209.97;5054682;28;20443;-67
2023/09/13 03:43:36;;;;;;;9.43;5.70;;;;;;;14.88;100.00;101220.81;5054654;28;20025;-65
2023/09/13 03:46:03;;;;;;;13.27;7.10;;;;;;;14.80;100.00;101212.81;5055131;28;20064;-64
2023/09/13 03:48:33;;;;;;;7.40;6.17;;;;;;;14.89;100.00;101227.84;5054884;28;20121;-65
2023/09/13 03:50:59;;;;;;;14.43;6.40;;;;;;;14.93;100.00;101239.88;5053182;28;20263;-63
2023/09/13 03:53:25;;;;;;;12.63;7.17;;;;;;;14.18;100.00;101109.22;5054614;28;20086;-69
2023/09/13 03:55:51;;;;;;;9.90;7.40;;;;;;;14.95;100.00;101237.84;5054514;28;20112;-66
2023/09/13 03:58:17;;;;;;;10.07;6.23;;;;;;;14.87;100.00;101224.50;5054358;28;20039;-64
2023/09/13 04:00:43;;;;;;;10.87;6.20;;;;;;;14.90;100.00;101234.88;5054338;28;20395;-67
2023/09/13 04:03:08;;;;;;;11.57;6.30;;;;;;;14.84;100.00;101222.19;5054219;28;20384;-64
2023/09/13 04:05:34;;;;;;;9.57;6.40;;;;;;;14.94;100.00;101238.84;5054176;28;20133;-67
2023/09/13 04:08:00;;;;;;;13.67;6.57;;;;;;;14.93;100.00;101237.19;5054360;28;20028;-66
2023/09/13 04:10:26;;;;;;;10.83;6.00;;;;;;;14.97;100.00;101235.81;5053184;28;20079;-67
2023/09/13 04:12:51;;;;;;;11.80;7.57;;;;;;;14.95;100.00;101227.09;5054326;28;20029;-67
2023/09/13 04:15:17;;;;;;;11.33;6.13;;;;;;;15.02;100.00;101238.78;5053910;28;20033;-64
2023/09/13 04:17:42;;;;;;;11.03;6.23;;;;;;;15.03;100.00;101228.88;5054105;28;20349;-65
2023/09/13 04:20:11;;;;;;;13.50;6.90;;;;;;;15.06;100.00;101240.13;5052598;28;20017;-66
2023/09/13 04:22:37;;;;;;;11.67;7.00;;;;;;;15.07;100.00;101224.84;5053953;28;20039;-65
2023/09/13 04:25:04;;;;;;;17.13;7.07;;;;;;;15.00;100.00;101214.00;5053633;28;20032;-67
2023/09/13 04:27:30;;;;;;;12.73;5.90;;;;;;;15.05;100.00;101217.00;5053720;28;20029;-66
2023/09/13 04:29:56;;;;;;;10.43;6.37;;;;;;;15.16;100.00;101227.28;5052469;28;20461;-67
2023/09/13 04:32:21;;;;;;;11.93;6.60;;;;;;;15.11;100.00;101210.06;5052250;28;20522;-67
2023/09/13 04:34:59;;;;;;;12.60;7.37;;;;;;;15.14;100.00;101218.56;5053495;28;20080;-70
2023/09/13 04:37:25;;;;;;;17.25;7.65;;;;;;;15.23;100.00;101218.50;5052359;28;20533;-65
2023/09/13 04:39:51;;;;;;;9.47;5.67;;;;;;;15.13;100.00;101182.03;5053050;28;20029;-69
2023/09/13 04:42:19;;;;;;;12.07;5.70;;;;;;;15.53;100.00;101228.25;5053243;28;20078;-70
2023/09/13 04:44:45;;;;;;;;;;;;;;;15.68;100.00;101223.78;5053388;28;20040;-68
2023/09/13 04:47:10;;;;;;;13.43;7.43;;;;;;;15.59;100.00;101214.13;5053199;28;19908;-68
2023/09/13 04:49:36;;;;;;;9.77;6.43;;;;;;;15.68;100.00;101210.34;5051954;28;20032;-70
2023/09/13 04:52:03;;;;;;;11.23;5.97;;;;;;;15.88;100.00;101223.19;5052639;28;20116;-68
2023/09/13 04:54:29;;;;;;;17.03;6.13;;;;;;;15.82;100.00;101202.47;5053043;28;20036;-70
2023/09/13 04:56:54;;;;;;;7.67;5.83;;;;;;;16.00;100.00;101221.72;5053079;28;20447;-67
2023/09/13 04:59:24;;;;;;;8.70;5.33;;;;;;;15.94;100.00;101207.19;5052953;28;20049;-68
2023/09/13 05:01:50;;;;;;;17.00;6.20;;;;;;;16.02;100.00;101203.56;5053252;28;20368;-67
2023/09/13 05:04:18;;;;;;;15.27;6.87;;;;;;;16.09;100.00;101216.06;5051855;28;20036;-68
2023/09/13 05:06:44;;;;;;;;;;;;;;;16.08;100.00;101218.94;5053449;28;20498;-67
2023/09/13 05:09:09;;;;;;;12.53;5.80;;;;;;;15.90;100.00;101205.03;5053254;28;19951;-66
2023/09/13 05:11:34;;;;;;;12.17;5.00;;;;;;;15.76;100.00;101202.19;5052883;28;20084;-67
2023/09/13 05:14:13;;;;;;;15.10;6.90;;;;;;;15.82;100.00;101223.94;5051692;28;20067;-67
2023/09/13 05:16:39;;;;;;;7.53;6.30;;;;;;;15.61;100.00;101198.69;5058062;28;20086;-74
2023/09/13 05:19:04;;;;;;;8.50;5.77;;;;;;;15.55;100.00;101190.50;5054116;28;20407;-67
2023/09/13 05:21:30;;;;;;;11.17;5.87;;;;;;;15.61;100.00;101206.75;5053601;28;20025;-68
2023/09/13 05:23:55;;;;;;;11.23;6.37;;;;;;;15.65;100.00;101213.41;5060793;28;20032;-70
2023/09/13 05:26:21;;;;;;;8.70;5.77;;;;;;;15.48;100.00;101191.22;5071469;28;20024;-71
2023/09/13 05:28:46;;;;;;;10.83;6.00;;;;;;;15.63;100.00;101218.13;5076307;28;20032;-74
2023/09/13 05:31:14;;;;;;;23.57;7.40;;;;;;;15.56;100.00;101200.22;5077283;28;20075;-74
2023/09/13 05:33:40;;;;;;;12.67;6.23;;;;;;;15.72;100.00;101224.25;5076984;28;20033;-73
2023/09/13 05:36:10;;;;;;;16.23;7.40;;;;;;;15.73;100.00;101218.69;5065671;28;20127;-69
2023/09/13 05:38:36;;;;;;;12.83;6.10;;;;;;;15.75;100.00;101203.22;5066343;28;20102;-69
2023/09/13 05:41:19;;;;;;;10.70;5.53;;;;;;;15.90;100.00;101221.16;5067203;28;20056;-70
2023/09/13 05:43:45;;;;;;;9.50;6.27;;;;;;;15.88;100.00;101199.03;5066037;28;20029;-69
2023/09/13 05:46:11;;;;;;;7.43;6.40;;;;;;;15.99;100.00;101210.16;5064685;28;20557;-69
2023/09/13 05:48:36;;;;;;;9.10;5.30;;;;;;;15.89;100.00;101171.97;5054186;28;20681;-69
2023/09/13 05:51:03;;;;;;;10.90;5.43;;;;;;;16.11;100.00;101197.91;5052673;28;20381;-69
2023/09/13 05:53:30;;;;;;;10.17;5.67;;;;;;;16.29;100.00;101208.25;5052482;28;20047;-68
2023/09/13 05:55:55;;;;;;;12.57;6.80;;;;;;;16.25;100.00;101193.53;5052230;28;20021;-70
2023/09/13 05:58:21;;;;;;;11.77;6.67;;;;;;;16.23;100.00;101168.69;5052374;28;20035;-70
2023/09/13 06:00:48;;;;;;;10.27;6.40;;;;;;;16.54;100.00;101202.53;5052293;28;20025;-68
2023/09/13 06:03:18;;;;;;;9.50;6.13;;;;;;;16.68;100.00;101205.19;5052478;28;20025;-68
2023/09/13 06:05:44;;;;;;;10.97;6.67;;;;;;;16.85;100.00;101210.31;5052624;28;20024;-73
2023/09/13 06:08:10;;;;;;;7.50;5.30;;;;;;;16.95;100.00;101205.44;5052047;28;20032;-69
2023/09/13 06:10:35;;;;;;;9.90;5.60;;;;;;;17.03;100.00;101200.72;5051979;28;20060;-71
2023/09/13 06:13:01;;;;;;;10.93;6.10;;;;;;;17.08;100.00;101202.88;5052062;28;20021;-69
2023/09/13 06:15:26;;;;;;;12.82;6.70;;;;;;;17.12;100.00;101200.63;5052119;28;20128;-70
2023/09/13 06:17:53;;;;;;;8.98;6.45;;;;;;;17.15;100.00;101186.78;5052338;28;20025;-71
2023/09/13 06:20:19;;;;;;;9.82;5.78;;;;;;;17.23;100.00;101190.13;5052302;28;20059;-72
2023/09/13 06:22:44;;;;;;;10.68;4.63;;;;;;;17.32;100.00;101206.97;5052363;28;20050;-70
2023/09/13 06:25:10;;;;;;;12.07;5.57;;;;;;;17.33;100.00;101197.84;5052174;28;20029;-69
2023/09/13 06:27:35;;;;;;;9.73;5.65;;;;;;;17.38;100.00;101195.44;5052599;28;20383;-70
2023/09/13 06:30:02;;;;;;;13.82;6.38;;;;;;;17.57;100.00;101204.66;5052640;28;20029;-69
2023/09/13 06:32:30;;;;;;;6.40;5.15;;;;;;;17.64;100.00;101192.09;5058658;28;20071;-69
2023/09/13 06:34:58;;;;;;;6.90;5.18;;;;;;;17.76;100.00;101187.00;5064045;28;20041;-68
2023/09/13 06:37:25;;;;;;;8.50;4.88;;;;;;;17.90;100.00;101210.25;5064472;28;20025;-68
2023/09/13 06:39:51;;;;;;;16.27;5.60;;;;;;;17.89;100.00;101222.06;5062942;28;20036;-68
2023/09/13 06:42:16;;;;;;;8.48;4.78;;;;;;;17.81;99.27;101195.28;5063710;28;20616;-66
2023/09/13 06:44:42;;;;;;;12.88;5.43;;;;;;;17.75;99.17;101196.94;5065446;28;20090;-68
2023/09/13 06:47:07;;;;;;;13.15;5.88;;;;;;;17.79;99.47;101197.38;5064054;28;20078;-69
2023/09/13 06:49:35;;;;;;;10.88;4.90;;;;;;;17.81;99.17;101212.28;5064898;28;20036;-67
2023/09/13 06:52:00;;;;;;;10.50;5.72;;;;;;;17.78;98.89;101195.69;5063959;28;20025;-69
2023/09/13 06:54:25;;;;;;;6.20;5.45;;;;;;;17.91;99.21;101201.16;5065819;28;20040;-68
2023/09/13 06:56:51;;;;;;;11.48;5.30;;;;;;;18.10;97.72;101195.03;5054806;28;20033;-72
2023/09/13 06:59:16;;;;;;;7.22;4.40;;;;;;;18.39;96.04;101193.88;5055943;28;20518;-71
2023/09/13 07:01:42;;;;;;;9.98;5.90;;;;;;;18.66;94.04;101194.78;5061584;28;20021;-69
2023/09/13 07:04:08;;;;;;;6.80;4.85;;;;;;;18.78;92.46;101190.44;5062308;28;20473;-68
2023/09/13 07:06:33;;;;;;;13.07;6.78;;;;;;;18.85;91.81;101183.22;5056641;28;20028;-71
2023/09/13 07:08:59;;;;;;;11.10;4.13;;;;;;;18.91;91.77;101196.91;5055376;28;20064;-69
2023/09/13 07:11:25;;;;;;;10.30;5.18;;;;;;;18.96;91.36;101197.09;5055387;28;20025;-70
2023/09/13 07:13:51;;;;;;;16.50;5.43;;;;;;;19.15;91.07;101207.09;5054166;28;20196;-69
2023/09/13 07:16:16;;;;;;;6.80;5.03;;;;;;;19.13;90.37;101198.38;5055051;28;20116;-70
2023/09/13 07:18:42;;;;;;;8.25;4.15;;;;;;;19.21;89.59;101211.66;5055179;28;20469;-68
2023/09/13 07:21:07;;;;;;;14.48;5.38;;;;;;;19.20;89.93;101201.88;5053942;28;20061;-72
2023/09/13 07:23:33;;;;;;;7.85;4.60;;;;;;;19.38;89.29;101204.78;5055306;28;20028;-70
2023/09/13 07:25:59;;;;;;;6.95;4.95;;;;;;;19.65;87.49;101210.16;5055076;28;20021;-69
2023/09/13 07:28:25;;;;;;;6.13;4.43;;;;;;;19.74;85.38;101176.47;5055100;28;20029;-71
2023/09/13 07:30:52;;;;;;;13.52;3.65;;;;;;;20.04;84.34;101196.53;5054882;28;20037;-71
2023/09/13 07:33:17;;;;;;;18.67;4.68;;;;;;;20.01;82.77;101194.28;5054886;28;20047;-71
2023/09/13 07:35:43;;;;;;;6.72;4.35;;;;;;;19.91;83.51;101199.28;5054819;28;20028;-72
2023/09/13 07:38:10;;;;;;;11.75;4.15;;;;;;;19.79;84.04;101201.00;5054621;28;20032;-69
2023/09/13 07:40:38;;;;;;;10.43;4.07;;;;;;;19.54;84.55;101183.81;5055031;28;20037;-70
2023/09/13 07:43:06;;;;;;;11.55;4.38;;;;;;;19.38;85.46;101188.59;5053372;28;20025;-71
2023/09/13 07:45:32;;;;;;;;;;;;;;;19.39;86.60;101190.25;5052835;28;20033;-68
2023/09/13 07:47:59;;;;;;;12.13;4.75;;;;;;;19.18;86.18;101171.56;5054608;28;19915;-70
2023/09/13 07:50:29;;;;;;;9.88;4.85;;;;;;;19.32;86.88;101185.88;5054314;28;20037;-71
2023/09/13 07:52:55;;;;;;;10.07;4.85;;;;;;;19.37;86.91;101189.63;5054262;28;20024;-70
2023/09/13 07:55:21;;;;;;;12.60;4.32;;;;;;;19.39;86.18;101176.75;5054537;28;20025;-70
2023/09/13 07:57:47;;;;;;;11.23;5.00;;;;;;;19.44;85.68;101182.34;5054419;28;20037;-70
2023/09/13 08:00:12;;;;;;;15.85;4.72;;;;;;;19.68;85.81;101185.44;5054558;28;20372;-73
2023/09/13 08:02:57;;;;;;;11.30;4.22;;;;;;;19.94;82.89;101193.44;5054445;28;20020;-69
2023/09/13 08:05:42;;;;;;;13.65;4.90;;;;;;;20.17;82.52;101187.53;5054470;28;20037;-71
2023/09/13 08:10:52;;;;;;;12.00;4.60;;;;;;;20.59;81.31;101180.69;5054530;28;20419;-72
2023/09/13 08:13:21;;;;;;;8.10;4.50;;;;;;;20.47;80.08;101182.41;5050606;28;20034;-73
2023/09/13 08:19:09;;;;;;;10.43;3.40;;;;;;;20.01;80.27;101151.00;5034345;28;20101;-70
2023/09/13 08:21:52;;;;;;;6.38;4.22;;;;;;;20.11;81.54;101181.09;5034117;28;20034;-73
2023/09/13 08:24:36;;;;;;;11.20;4.40;;;;;;;20.06;81.26;101169.28;5034199;28;20032;-71
2023/09/13 08:29:49;;;;;;;9.45;4.82;;;;;;;20.23;80.54;101169.59;5053977;28;20024;-69
2023/09/13 08:32:17;;;;;;;13.40;4.72;;;;;;;20.40;80.65;101181.63;5053830;28;20388;-76
2023/09/13 08:34:43;;;;;;;10.75;3.60;;;;;;;20.25;80.31;101135.09;5053750;28;20078;-75
2023/09/13 08:37:08;;;;;;;6.68;4.25;;;;;;;20.61;79.31;101175.88;5053892;28;20064;-72
2023/09/13 08:39:34;;;;;;;13.13;4.60;;;;;;;20.59;78.44;101164.44;5054038;28;20481;-75
2023/09/13 08:41:59;;;;;;;9.65;3.90;;;;;;;20.69;78.53;101167.47;5053663;28;20467;-74
2023/09/13 08:44:27;;;;;;;11.15;4.10;;;;;;;20.70;77.85;101161.00;5053334;28;20543;-71
2023/09/13 08:46:55;;;;;;;10.25;4.20;;;;;;;20.76;77.95;101177.44;5053386;28;20124;-71
2023/09/13 08:49:21;;;;;;;;;;;;;;;20.84;78.18;101172.59;5054196;28;20036;-72
2023/09/13 08:51:47;;;;;;;11.27;4.63;;;;;;;20.90;77.73;101181.69;5053653;28;20073;-74
2023/09/13 08:54:14;;;;;;;7.90;3.60;;;;;;;20.91;76.05;101161.69;5053449;28;20032;-74
2023/09/13 08:56:45;;;;;;;18.15;5.82;;;;;;;21.03;75.69;101177.00;5052140;28;20384;-70
2023/09/13 08:59:15;;;;;;;9.25;4.43;;;;;;;21.06;75.60;101167.59;5053263;28;20469;-73
2023/09/13 09:01:49;;;;;;;9.18;4.35;;;;;;;20.44;76.01;101057.56;5053713;28;20051;-71
2023/09/13 09:04:19;;;;;;;12.38;4.50;;;;;;;21.22;74.95;101167.03;5053091;28;20380;-71
2023/09/13 09:06:45;;;;;;;9.52;4.32;;;;;;;21.05;74.62;101128.03;5035619;28;20490;-71
2023/09/13 09:09:13;;;;;;;7.40;4.20;;;;;;;21.31;74.86;101157.59;5052835;28;20086;-70
2023/09/13 09:11:42;;;;;;;13.15;4.32;;;;;;;21.42;74.64;101157.94;5052841;28;20020;-71
2023/09/13 09:14:10;;;;;;;12.10;4.88;;;;;;;21.49;74.58;101167.66;5051726;28;20032;-72
2023/09/13 09:16:37;;;;;;;;;;;;;;;21.58;74.21;101160.03;5051806;28;20025;-70
2023/09/13 09:19:05;;;;;;;13.88;3.97;;;;;;;21.59;74.05;101164.41;5052919;28;19909;-71
2023/09/13 09:21:32;;;;;;;10.75;4.18;;;;;;;21.20;73.31;101093.31;5052814;28;20028;-69
2023/09/13 09:23:58;;;;;;;9.00;3.92;;;;;;;21.61;73.79;101154.16;5052573;28;20048;-70
2023/09/13 09:26:23;;;;;;;10.23;4.47;;;;;;;21.61;73.41;101152.28;5052448;28;20025;-72
2023/09/13 09:28:50;;;;;;;6.97;4.20;;;;;;;21.61;74.02;101162.28;5051368;28;20115;-69
2023/09/13 09:31:23;;;;;;;10.15;4.75;;;;;;;21.59;73.98;101146.25;5052405;28;20044;-71
2023/09/13 09:34:01;;;;;;;12.23;4.20;;;;;;;21.47;73.36;101122.84;5053008;28;20032;-71
2023/09/13 09:36:33;;;;;;;9.50;4.32;;;;;;;21.65;72.42;101150.78;5053529;28;20028;-73
2023/09/13 09:39:04;;;;;;;12.25;3.65;;;;;;;21.50;72.96;101127.81;5052193;28;20091;-73
2023/09/13 09:41:37;;;;;;;11.57;4.50;;;;;;;21.66;72.83;101157.03;5034573;28;20166;-72
2023/09/13 09:44:04;;;;;;;13.93;4.35;;;;;;;21.62;72.46;101148.50;5052725;28;20368;-70
2023/09/13 09:46:33;;;;;;;8.65;4.05;;;;;;;21.78;72.92;101151.69;5052486;28;20021;-71
2023/09/13 09:49:00;;;;;;;10.88;4.82;;;;;;;21.67;72.73;101114.47;5052608;28;20071;-71
2023/09/13 09:51:26;;;;;;;8.88;4.25;;;;;;;21.89;72.23;101131.94;5034718;28;20033;-72
2023/09/13 09:53:52;;;;;;;9.70;5.03;;;;;;;22.12;71.72;101142.09;5052415;28;20028;-74
2023/09/13 09:56:18;;;;;;;15.48;4.07;;;;;;;22.29;71.71;101148.56;5052637;28;20033;-70
2023/09/13 09:58:46;;;;;;;8.27;4.15;;;;;;;22.41;70.37;101129.56;5051089;28;20377;-72
2023/09/13 10:01:12;;;;;;;11.05;4.15;;;;;;;22.53;70.06;101130.44;5052610;28;20034;-72
2023/09/13 10:03:38;;;;;;;12.60;4.45;;;;;;;22.69;70.07;101150.66;5050923;28;20028;-71
2023/09/13 10:06:15;;;;;;;11.30;3.88;;;;;;;22.64;70.31;101145.94;5051018;28;20464;-71
2023/09/13 10:08:46;;;;;;;27.08;4.80;;;;;;;22.42;70.15;101137.50;5034671;28;20459;-72
2023/09/13 10:11:22;;;;;;;11.77;4.45;;;;;;;22.41;70.46;101146.69;5052275;28;20017;-71
2023/09/13 10:13:48;;;;;;;10.02;4.57;;;;;;;22.47;70.76;101144.94;5052186;28;20080;-70
2023/09/13 10:16:16;;;;;;;9.25;4.95;;;;;;;22.60;71.11;101154.78;5051644;28;20024;-71
2023/09/13 10:18:48;;;;;;;8.27;5.57;;;;;;;22.71;70.19;101162.94;5050407;28;20017;-69
2023/09/13 10:21:28;;;;;;;9.68;4.57;;;;;;;22.79;69.27;101157.16;5052463;28;20094;-70
2023/09/13 10:24:10;;;;;;;11.25;5.40;;;;;;;22.91;69.13;101140.94;5051638;28;20087;-69
2023/09/13 10:26:37;;;;;;;7.15;4.00;;;;;;;23.23;68.71;101162.31;5051926;28;20115;-71
2023/09/13 10:29:30;;;;;;;14.40;5.28;;;;;;;23.46;68.36;101156.88;5054662;28;20071;-72
2023/09/13 10:32:02;;;;;;;8.25;4.90;;;;;;;23.71;66.71;101133.00;5056167;28;20045;-68
2023/09/13 10:34:29;;;;;;;13.55;5.18;;;;;;;23.94;66.84;101133.97;5056287;28;20071;-72
2023/09/13 10:37:33;;;;;;;13.15;4.82;;;;;;;24.13;66.03;101159.94;5056582;28;20461;-70
2023/09/13 10:40:20;;;;;;;9.75;4.75;;;;;;;24.07;66.19;101150.84;5021483;28;20056;-69
2023/09/13 10:42:46;;;;;;;14.20;5.27;;;;;;;24.08;66.02;101135.34;5057732;28;20388;-69
2023/09/13 10:45:17;;;;;;;8.60;4.75;;;;;;;24.23;65.34;101146.50;5055933;28;20283;-74
2023/09/13 10:47:42;;;;;;;9.85;4.97;;;;;;;24.34;64.92;101153.84;5055903;28;20079;-72
2023/09/13 10:50:09;;;;;;;13.48;4.93;;;;;;;24.26;65.07;101137.84;5058535;28;20530;-70
2023/09/13 10:52:35;;;;;;;13.45;5.88;;;;;;;24.28;65.00;101154.78;5055977;28;20052;-68
2023/09/13 10:55:05;;;;;;;14.02;5.97;;;;;;;24.21;65.13;101150.53;5055678;28;20460;-70
2023/09/13 10:57:32;;;;;;;11.05;6.00;;;;;;;24.04;66.08;101145.06;5055436;28;20025;-72
2023/09/13 10:59:58;;;;;;;13.25;5.63;;;;;;;23.90;65.60;101138.25;5055592;28;20044;-70
2023/09/13 11:02:24;;;;;;;9.43;5.57;;;;;;;23.87;66.85;101142.28;5055383;28;20032;-71
2023/09/13 11:04:52;;;;;;;8.70;5.30;;;;;;;23.55;66.77;101105.69;5055246;28;20032;-70
2023/09/13 11:07:18;;;;;;;10.32;5.13;;;;;;;23.67;67.47;101129.06;5055227;28;20025;-72
2023/09/13 11:09:45;;;;;;;12.90;6.57;;;;;;;23.63;67.89;101135.22;5054023;28;20082;-69
2023/09/13 11:12:14;;;;;;;11.68;5.78;;;;;;;23.70;67.67;101144.06;5054213;28;20395;-67
2023/09/13 11:14:47;;;;;;;13.85;5.68;;;;;;;23.85;67.91;101147.13;5053523;28;20110;-70
2023/09/13 11:17:38;;;;;;;9.65;5.22;;;;;;;24.05;67.10;101152.16;5054980;28;20078;-68
2023/09/13 11:20:35;;;;;;;8.23;5.32;;;;;;;24.10;66.88;101155.78;5055480;28;20025;-70
2023/09/13 11:23:14;;;;;;;9.45;5.45;;;;;;;24.12;67.26;101155.56;5055228;28;20029;-69
2023/09/13 11:25:54;;;;;;;11.27;5.72;;;;;;;24.07;67.66;101139.97;5055086;28;20063;-69
2023/09/13 11:28:31;;;;;;;14.38;6.47;;;;;;;24.11;67.95;101134.84;5054843;28;20456;-69
2023/09/13 11:30:59;;;;;;;15.48;8.80;;;;;;;24.10;67.57;101131.31;5055024;28;20037;-70